createdAt,value
2023-03-04T00:00:50.390Z,0.75
2023-03-04T00:03:18.089Z,0.77
2023-03-04T00:05:47.247Z,0.70
2023-03-04T00:08:14.977Z,0.72
2023-03-04T00:10:43.884Z,0.68
2023-03-04T00:13:11.667Z,0.64
2023-03-04T00:15:40.914Z,0.63
2023-03-04T00:18:08.798Z,0.60
2023-03-04T00:20:36.601Z,0.54
2023-03-04T00:23:04.278Z,0.54
2023-03-04T00:25:33.608Z,0.51
2023-03-04T00:28:01.524Z,0.49
2023-03-04T00:30:29.188Z,0.45
2023-03-04T00:32:58.177Z,0.42
2023-03-04T00:35:25.868Z,0.41
2023-03-04T00:37:53.589Z,0.39
2023-03-04T00:40:21.528Z,0.39
2023-03-04T00:42:49.205Z,0.34
2023-03-04T00:45:16.972Z,0.30
2023-03-04T00:47:44.680Z,0.29
2023-03-04T00:50:13.985Z,0.27
2023-03-04T00:52:41.661Z,0.29
2023-03-04T00:55:10.199Z,0.29
2023-03-04T00:57:37.933Z,0.25
2023-03-04T01:00:06.299Z,0.28
2023-03-04T01:02:34.033Z,0.24
2023-03-04T01:05:01.648Z,0.20
2023-03-04T01:07:30.648Z,0.16
2023-03-04T01:09:58.276Z,0.10
2023-03-04T01:12:25.993Z,0.12
2023-03-04T01:14:53.664Z,0.11
2023-03-04T01:17:21.387Z,0.11
2023-03-04T01:19:49.101Z,0.09
2023-03-04T01:22:18.995Z,0.12
2023-03-04T01:24:48.932Z,0.07
2023-03-04T01:27:16.643Z,-0.01
2023-03-04T01:29:44.305Z,0.00
2023-03-04T01:32:12.084Z,0.00
2023-03-04T01:34:39.853Z,-0.04
2023-03-04T01:37:07.517Z,-0.09
2023-03-04T01:39:35.175Z,-0.09
2023-03-04T01:42:04.259Z,-0.07
2023-03-04T01:44:31.950Z,-0.05
2023-03-04T01:46:59.744Z,-0.10
2023-03-04T01:49:27.440Z,-0.13
2023-03-04T01:51:55.851Z,-0.19
2023-03-04T01:54:23.986Z,-0.15
2023-03-04T01:56:52.820Z,-0.22
2023-03-04T01:59:22.932Z,-0.16
2023-03-04T02:01:51.565Z,-0.22
2023-03-04T02:04:20.846Z,-0.22
2023-03-04T02:06:49.279Z,-0.30
2023-03-04T02:09:17.483Z,-0.31
2023-03-04T02:11:45.593Z,-0.30
2023-03-04T02:14:13.544Z,-0.36
2023-03-04T02:16:42.632Z,-0.41
2023-03-04T02:19:15.012Z,-0.35
2023-03-04T02:21:42.713Z,-0.33
2023-03-04T02:24:15.292Z,-0.35
2023-03-04T02:26:44.567Z,-0.34
2023-03-04T02:29:14.017Z,-0.33
2023-03-04T02:31:43.116Z,-0.28
2023-03-04T02:34:13.658Z,-0.34
2023-03-04T02:36:41.459Z,-0.42
2023-03-04T02:39:12.806Z,-0.49
2023-03-04T02:41:40.940Z,-0.50
2023-03-04T02:44:16.957Z,-0.60
2023-03-04T02:46:44.709Z,-0.67
2023-03-04T02:49:12.421Z,-0.70
2023-03-04T02:51:40.184Z,-0.72
2023-03-04T02:54:15.984Z,-0.76
2023-03-04T02:56:46.025Z,-0.78
2023-03-04T02:59:15.074Z,-0.84
2023-03-04T03:01:43.073Z,-0.87
2023-03-04T03:04:10.810Z,-0.86
2023-03-04T03:06:38.449Z,-0.92
2023-03-04T03:09:06.461Z,-0.95
2023-03-04T03:11:34.212Z,-1.00
2023-03-04T03:14:01.836Z,-0.99
2023-03-04T03:16:30.844Z,-1.06
2023-03-04T03:18:58.540Z,-1.11
2023-03-04T03:21:26.321Z,-1.11
2023-03-04T03:23:54.085Z,-1.17
2023-03-04T03:26:21.767Z,-1.19
2023-03-04T03:28:49.424Z,-1.25
2023-03-04T03:31:17.184Z,-1.32
2023-03-04T03:33:46.300Z,-1.32
2023-03-04T03:36:14.015Z,-1.36
2023-03-04T03:38:41.715Z,-1.34
2023-03-04T03:41:09.627Z,-1.33
2023-03-04T03:43:37.269Z,-1.39
2023-03-04T03:46:05.005Z,-1.43
2023-03-04T03:48:32.742Z,-1.49
2023-03-04T03:51:01.799Z,-1.54
2023-03-04T03:53:29.420Z,-1.53
2023-03-04T03:55:57.041Z,-1.55
2023-03-04T03:58:26.809Z,-1.60
2023-03-04T04:00:56.490Z,-1.60
2023-03-04T04:03:25.982Z,-1.65
2023-03-04T04:05:53.824Z,-1.69
2023-03-04T04:08:23.003Z,-1.69
2023-03-04T04:10:50.669Z,-1.66
2023-03-04T04:13:18.273Z,-1.68
2023-03-04T04:15:45.941Z,-1.71
2023-03-04T04:18:13.558Z,-1.77
2023-03-04T04:20:41.250Z,-1.79
2023-03-04T04:23:08.900Z,-1.77
2023-03-04T04:25:37.997Z,-1.80
2023-03-04T04:28:05.687Z,-1.85
2023-03-04T04:30:33.348Z,-1.90
2023-03-04T04:33:01.916Z,-1.88
2023-03-04T04:35:29.703Z,-1.89
2023-03-04T04:37:57.440Z,-1.90
2023-03-04T04:40:25.303Z,-1.95
2023-03-04T04:42:56.424Z,-1.95
2023-03-04T04:45:26.867Z,-1.98
2023-03-04T04:47:57.245Z,-1.99
2023-03-04T04:50:25.323Z,-2.04
2023-03-04T04:52:52.994Z,-2.07
2023-03-04T04:55:20.748Z,-2.08
2023-03-04T04:57:48.414Z,-2.08
2023-03-04T05:00:19.031Z,-2.08
2023-03-04T05:02:46.696Z,-2.14
2023-03-04T05:05:14.519Z,-2.20
2023-03-04T05:07:42.175Z,-2.22
2023-03-04T05:10:10.765Z,-2.25
2023-03-04T05:12:38.557Z,-2.24
2023-03-04T05:15:06.643Z,-2.27
2023-03-04T05:17:35.751Z,-2.27
2023-03-04T05:20:07.412Z,-2.26
2023-03-04T05:22:35.161Z,-2.25
2023-03-04T05:25:03.193Z,-2.27
2023-03-04T05:27:31.029Z,-2.24
2023-03-04T05:30:00.836Z,-2.24
2023-03-04T05:32:28.623Z,-2.26
2023-03-04T05:34:57.709Z,-2.31
2023-03-04T05:37:25.408Z,-2.29
2023-03-04T05:39:53.075Z,-2.31
2023-03-04T05:42:20.776Z,-2.34
2023-03-04T05:44:48.523Z,-2.32
2023-03-04T05:47:16.152Z,-2.37
2023-03-04T05:49:44.610Z,-2.35
2023-03-04T05:52:13.699Z,-2.36
2023-03-04T05:54:41.361Z,-2.37
2023-03-04T05:57:09.018Z,-2.37
2023-03-04T05:59:39.066Z,-2.37
2023-03-04T06:02:09.170Z,-2.41
2023-03-04T06:04:36.796Z,-2.42
2023-03-04T06:07:04.405Z,-2.44
2023-03-04T06:09:33.401Z,-2.45
2023-03-04T06:12:01.036Z,-2.43
2023-03-04T06:14:28.795Z,-2.43
2023-03-04T06:16:56.525Z,-2.42
2023-03-04T06:19:24.201Z,-2.43
2023-03-04T06:21:51.817Z,-2.45
2023-03-04T06:24:19.594Z,-2.44
2023-03-04T06:26:48.706Z,-2.45
2023-03-04T06:29:16.363Z,-2.42
2023-03-04T06:31:44.070Z,-2.46
2023-03-04T06:34:12.741Z,-2.44
2023-03-04T06:36:40.435Z,-2.43
2023-03-04T06:39:08.336Z,-2.45
2023-03-04T06:41:36.113Z,-2.39
2023-03-04T06:44:05.191Z,-2.34
2023-03-04T06:46:34.143Z,-2.25
2023-03-04T06:49:01.931Z,-2.24
2023-03-04T06:51:30.487Z,-2.21
2023-03-04T06:53:58.204Z,-2.13
2023-03-04T06:56:25.899Z,-2.11
2023-03-04T06:58:53.598Z,-2.07
2023-03-04T07:01:23.909Z,-2.04
2023-03-04T07:03:52.180Z,-1.99
2023-03-04T07:06:21.080Z,-1.99
2023-03-04T07:08:48.985Z,-2.01
2023-03-04T07:11:17.115Z,-2.00
2023-03-04T07:13:44.962Z,-2.01
2023-03-04T07:16:13.205Z,-1.94
2023-03-04T07:18:42.393Z,-1.93
2023-03-04T07:21:10.067Z,-1.89
2023-03-04T07:23:38.087Z,-1.90
2023-03-04T07:26:06.197Z,-1.88
2023-03-04T07:28:33.840Z,-1.87
2023-03-04T07:31:09.074Z,-1.85
2023-03-04T07:33:36.679Z,-1.83
2023-03-04T07:36:06.014Z,-1.86
2023-03-04T07:38:33.920Z,-1.88
2023-03-04T07:41:02.035Z,-1.79
2023-03-04T07:43:29.980Z,-1.74
2023-03-04T07:46:01.919Z,-1.67
2023-03-04T07:48:29.552Z,-1.60
2023-03-04T07:51:09.751Z,-1.46
2023-03-04T07:53:38.553Z,-1.48
2023-03-04T07:56:07.413Z,-1.45
2023-03-04T07:58:35.068Z,-1.32
2023-03-04T08:01:02.743Z,-1.24
2023-03-04T08:03:30.798Z,-1.20
2023-03-04T08:05:58.513Z,-1.14
2023-03-04T08:08:27.501Z,-1.15
2023-03-04T08:10:55.154Z,-1.08
2023-03-04T08:13:25.557Z,-1.07
2023-03-04T08:15:53.671Z,-1.09
2023-03-04T08:18:21.364Z,-1.08
2023-03-04T08:20:49.067Z,-1.09
2023-03-04T08:23:16.675Z,-1.06
2023-03-04T08:25:45.808Z,-1.04
2023-03-04T08:28:14.099Z,-1.03
2023-03-04T08:30:42.058Z,-1.00
2023-03-04T08:33:10.662Z,-0.97
2023-03-04T08:35:38.966Z,-0.95
2023-03-04T08:38:06.894Z,-0.90
2023-03-04T08:40:34.982Z,-0.93
2023-03-04T08:43:04.023Z,-0.90
2023-03-04T08:45:31.615Z,-0.87
2023-03-04T08:47:59.272Z,-0.75
2023-03-04T08:50:27.529Z,-0.74
2023-03-04T08:52:55.223Z,-0.72
2023-03-04T08:55:22.945Z,-0.68
2023-03-04T08:57:50.623Z,-0.61
2023-03-04T09:00:21.229Z,-0.60
2023-03-04T09:02:48.886Z,-0.60
2023-03-04T09:05:16.666Z,-0.55
2023-03-04T09:07:44.363Z,-0.51
2023-03-04T09:10:12.826Z,-0.48
2023-03-04T09:12:40.539Z,-0.43
2023-03-04T09:15:11.791Z,-0.40
2023-03-04T09:17:41.582Z,-0.22
2023-03-04T09:20:10.345Z,-0.30
2023-03-04T09:22:38.168Z,-0.24
2023-03-04T09:25:10.358Z,-0.19
2023-03-04T09:27:39.871Z,-0.09
2023-03-04T09:30:08.259Z,-0.11
2023-03-04T09:32:35.994Z,0.03
2023-03-04T09:35:05.452Z,0.09
2023-03-04T09:37:33.103Z,0.07
2023-03-04T09:40:00.787Z,0.07
2023-03-04T09:42:31.355Z,0.23
2023-03-04T09:44:59.717Z,0.33
2023-03-04T09:47:27.410Z,0.07
2023-03-04T09:49:57.324Z,0.25
2023-03-04T09:52:31.980Z,0.35
2023-03-04T09:55:05.062Z,0.30
2023-03-04T09:57:41.819Z,0.27
2023-03-04T10:00:14.017Z,0.39
2023-03-04T10:02:45.977Z,0.52
2023-03-04T10:05:16.077Z,0.60
2023-03-04T10:07:48.184Z,0.64
2023-03-04T10:10:18.176Z,0.79
2023-03-04T10:12:47.584Z,0.92
2023-03-04T10:15:23.895Z,0.82
2023-03-04T10:17:53.740Z,0.90
2023-03-04T10:20:23.678Z,0.90
2023-03-04T10:22:53.366Z,1.01
2023-03-04T10:25:21.787Z,0.95
2023-03-04T10:27:51.913Z,1.14
2023-03-04T10:30:24.454Z,1.08
2023-03-04T10:32:52.112Z,1.17
2023-03-04T10:35:21.791Z,1.20
2023-03-04T10:37:51.644Z,1.30
2023-03-04T10:40:21.989Z,1.39
2023-03-04T10:42:50.057Z,1.40
2023-03-04T10:45:21.794Z,1.53
2023-03-04T10:47:58.861Z,1.56
2023-03-04T10:50:27.387Z,1.49
2023-03-04T10:52:55.963Z,1.56
2023-03-04T10:55:27.001Z,1.62
2023-03-04T10:57:57.861Z,1.74
2023-03-04T11:00:27.551Z,1.85
2023-03-04T11:03:15.347Z,1.87
2023-03-04T11:05:43.040Z,1.89
2023-03-04T11:08:17.696Z,1.79
2023-03-04T11:10:46.785Z,1.89
2023-03-04T11:13:17.617Z,1.93
2023-03-04T11:15:53.134Z,2.06
2023-03-04T11:18:23.430Z,2.10
2023-03-04T11:20:52.088Z,2.10
2023-03-04T11:23:23.708Z,2.12
2023-03-04T11:25:56.365Z,2.15
2023-03-04T11:28:25.437Z,2.18
2023-03-04T11:30:55.772Z,2.23
2023-03-04T11:33:27.700Z,2.30
2023-03-04T11:35:59.332Z,2.34
2023-03-04T11:38:30.566Z,2.43
2023-03-04T11:41:01.356Z,2.37
2023-03-04T11:43:31.174Z,2.44
2023-03-04T11:46:16.699Z,2.41
2023-03-04T11:48:50.474Z,2.43
2023-03-04T11:51:22.244Z,2.34
2023-03-04T11:53:59.891Z,2.38
2023-03-04T11:56:33.842Z,2.40
2023-03-04T11:59:28.332Z,2.35
2023-03-04T12:02:00.627Z,2.31
2023-03-04T12:04:39.727Z,2.28
2023-03-04T12:07:12.849Z,2.28
2023-03-04T12:09:44.024Z,2.31
2023-03-04T12:12:28.052Z,2.26
2023-03-04T12:15:02.911Z,2.26
2023-03-04T12:17:39.492Z,2.20
2023-03-04T12:20:20.730Z,2.20
2023-03-04T12:22:52.708Z,2.17
2023-03-04T12:25:26.216Z,2.10
2023-03-04T12:28:02.330Z,1.98
2023-03-04T12:30:36.758Z,1.89
2023-03-04T12:33:11.949Z,2.00
2023-03-04T12:35:42.056Z,1.91
2023-03-04T12:38:27.571Z,1.76
2023-03-04T12:40:58.970Z,1.74
2023-03-04T12:43:34.447Z,1.76
2023-03-04T12:46:08.065Z,1.67
2023-03-04T12:48:38.420Z,1.59
2023-03-04T12:51:13.107Z,1.53
2023-03-04T12:53:44.547Z,1.53
2023-03-04T12:56:21.192Z,1.46
2023-03-04T12:58:50.993Z,1.47
2023-03-04T13:01:22.843Z,1.52
2023-03-04T13:03:56.458Z,1.52
2023-03-04T13:06:30.996Z,1.45
2023-03-04T13:09:02.761Z,1.34
2023-03-04T13:11:34.858Z,1.39
2023-03-04T13:14:04.868Z,1.53
2023-03-04T13:16:33.720Z,1.53
2023-03-04T13:19:01.523Z,1.53
2023-03-04T13:21:31.564Z,1.47
2023-03-04T13:23:59.828Z,1.37
2023-03-04T13:26:32.520Z,1.40
2023-03-04T13:29:18.725Z,1.41
2023-03-04T13:32:00.072Z,1.33
2023-03-04T13:34:44.276Z,1.35
2023-03-04T13:37:26.870Z,1.30
2023-03-04T13:40:09.456Z,1.39
2023-03-04T13:42:42.034Z,1.43
2023-03-04T13:45:28.429Z,1.50
2023-03-04T13:47:57.666Z,1.52
2023-03-04T13:50:31.677Z,1.58
2023-03-04T13:53:01.625Z,1.64
2023-03-04T13:55:32.184Z,1.71
2023-03-04T13:57:59.820Z,1.77
2023-03-04T14:00:28.380Z,1.83
2023-03-04T14:02:57.529Z,1.86
2023-03-04T14:05:25.113Z,1.87
2023-03-04T14:07:52.770Z,1.92
2023-03-04T14:10:24.289Z,1.98
2023-03-04T14:12:53.862Z,1.97
2023-03-04T14:15:24.090Z,1.98
2023-03-04T14:17:53.598Z,1.98
2023-03-04T14:20:30.046Z,2.03
2023-03-04T14:22:57.982Z,2.08
2023-03-04T14:25:27.329Z,2.14
2023-03-04T14:28:03.814Z,2.22
2023-03-04T14:30:42.211Z,2.26
2023-03-04T14:33:15.211Z,2.33
2023-03-04T14:35:47.253Z,2.42
2023-03-04T14:38:20.467Z,2.46
2023-03-04T14:40:52.092Z,2.47
2023-03-04T14:43:21.036Z,2.53
2023-03-04T14:45:50.672Z,2.56
2023-03-04T14:48:22.360Z,2.57
2023-03-04T14:50:51.968Z,2.58
2023-03-04T14:53:21.301Z,2.56
2023-03-04T14:55:59.958Z,2.54
2023-03-04T14:58:28.281Z,2.48
2023-03-04T15:01:14.327Z,2.42
2023-03-04T15:03:44.274Z,2.38
2023-03-04T15:06:19.468Z,2.39
2023-03-04T15:08:47.768Z,2.36
2023-03-04T15:11:23.096Z,2.39
2023-03-04T15:13:51.466Z,2.43
2023-03-04T15:16:23.163Z,2.37
2023-03-04T15:19:02.244Z,2.39
2023-03-04T15:21:33.168Z,2.39
2023-03-04T15:24:01.227Z,2.37
2023-03-04T15:26:28.944Z,2.41
2023-03-04T15:28:56.577Z,2.45
2023-03-04T15:31:25.776Z,2.45
2023-03-04T15:33:53.436Z,2.48
2023-03-04T15:36:22.185Z,2.51
2023-03-04T15:38:52.186Z,2.53
2023-03-04T15:41:22.329Z,2.60
2023-03-04T15:43:50.085Z,2.61
2023-03-04T15:46:18.133Z,2.64
2023-03-04T15:48:46.633Z,2.65
2023-03-04T15:51:15.782Z,2.64
2023-03-04T15:53:44.785Z,2.66
2023-03-04T15:56:16.180Z,2.65
2023-03-04T15:58:44.492Z,2.67
2023-03-04T16:01:16.150Z,2.65
2023-03-04T16:03:44.197Z,2.60
2023-03-04T16:06:12.934Z,2.60
2023-03-04T16:08:41.117Z,2.58
2023-03-04T16:11:11.652Z,2.53
2023-03-04T16:13:40.712Z,2.48
2023-03-04T16:16:10.959Z,2.46
2023-03-04T16:18:38.698Z,2.48
2023-03-04T16:21:06.635Z,2.42
2023-03-04T16:23:39.260Z,2.37
2023-03-04T16:26:11.460Z,2.34
2023-03-04T16:28:40.866Z,2.27
2023-03-04T16:31:08.714Z,2.23
2023-03-04T16:33:36.484Z,2.24
2023-03-04T16:36:05.358Z,2.21
2023-03-04T16:38:34.700Z,2.19
2023-03-04T16:41:03.089Z,2.14
2023-03-04T16:43:30.826Z,2.10
2023-03-04T16:45:59.946Z,2.06
2023-03-04T16:48:27.677Z,2.01
2023-03-04T16:50:57.346Z,1.93
2023-03-04T16:53:27.956Z,1.88
2023-03-04T16:55:56.506Z,1.84
2023-03-04T16:58:24.339Z,1.77
2023-03-04T17:00:52.146Z,1.75
2023-03-04T17:03:21.235Z,1.74
2023-03-04T17:05:48.978Z,1.70
2023-03-04T17:08:16.695Z,1.66
2023-03-04T17:10:44.316Z,1.63
2023-03-04T17:13:11.960Z,1.55
2023-03-04T17:15:41.017Z,1.52
2023-03-04T17:18:08.721Z,1.45
2023-03-04T17:20:37.800Z,1.41
2023-03-04T17:23:05.501Z,1.36
2023-03-04T17:25:33.101Z,1.26
2023-03-04T17:28:00.749Z,1.20
2023-03-04T17:30:28.451Z,1.17
2023-03-04T17:32:56.150Z,1.12
2023-03-04T17:35:25.707Z,1.10
2023-03-04T17:37:54.949Z,1.09
2023-03-04T17:40:22.611Z,1.06
2023-03-04T17:42:50.339Z,1.04
2023-03-04T17:45:18.172Z,0.98
2023-03-04T17:47:45.884Z,0.92
2023-03-04T17:50:13.673Z,0.88
2023-03-04T17:52:41.573Z,0.81
2023-03-04T17:55:11.304Z,0.74
2023-03-04T17:57:39.140Z,0.73
2023-03-04T18:00:07.352Z,0.69
2023-03-04T18:02:35.132Z,0.68
2023-03-04T18:05:05.710Z,0.68
2023-03-04T18:07:33.486Z,0.64
2023-03-04T18:10:01.303Z,0.62
2023-03-04T18:12:30.560Z,0.55
2023-03-04T18:14:58.308Z,0.53
2023-03-04T18:17:26.560Z,0.55
2023-03-04T18:19:54.178Z,0.48
2023-03-04T18:22:21.860Z,0.43
2023-03-04T18:24:49.668Z,0.41
2023-03-04T18:27:17.468Z,0.32
2023-03-04T18:29:46.569Z,0.38
2023-03-04T18:32:14.294Z,0.33
2023-03-04T18:34:42.066Z,0.33
2023-03-04T18:37:09.801Z,0.27
2023-03-04T18:39:37.581Z,0.29
2023-03-04T18:42:07.289Z,0.28
2023-03-04T18:44:34.945Z,0.28
2023-03-04T18:47:04.012Z,0.29
2023-03-04T18:49:31.780Z,0.26
2023-03-04T18:51:59.456Z,0.24
2023-03-04T18:54:27.211Z,0.22
2023-03-04T18:56:57.850Z,0.20
2023-03-04T18:59:27.893Z,0.18
2023-03-04T19:01:55.832Z,0.18
2023-03-04T19:04:27.976Z,0.17
2023-03-04T19:06:55.919Z,0.16
2023-03-04T19:09:23.569Z,0.19
2023-03-04T19:11:51.237Z,0.21
2023-03-04T19:14:18.856Z,0.19
2023-03-04T19:16:46.572Z,0.16
2023-03-04T19:19:15.189Z,0.13
2023-03-04T19:21:44.222Z,0.16
2023-03-04T19:24:11.946Z,0.18
2023-03-04T19:26:40.100Z,0.19
2023-03-04T19:29:07.937Z,0.21
2023-03-04T19:31:40.740Z,0.18
2023-03-04T19:34:09.035Z,0.16
2023-03-04T19:36:36.799Z,0.15
2023-03-04T19:39:05.850Z,0.12
2023-03-04T19:41:33.545Z,0.11
2023-03-04T19:44:01.331Z,0.09
2023-03-04T19:46:29.137Z,0.10
2023-03-04T19:48:56.871Z,0.09
2023-03-04T19:51:26.174Z,0.04
2023-03-04T19:53:54.548Z,0.04
2023-03-04T19:56:24.232Z,0.01
2023-03-04T19:58:54.020Z,0.03
2023-03-04T20:01:22.489Z,0.05
2023-03-04T20:03:50.245Z,0.01
2023-03-04T20:06:17.887Z,-0.01
2023-03-04T20:08:45.593Z,-0.04
2023-03-04T20:11:13.966Z,-0.07
2023-03-04T20:13:43.072Z,-0.10
2023-03-04T20:16:11.959Z,-0.14
2023-03-04T20:18:39.745Z,-0.15
2023-03-04T20:21:08.057Z,-0.21
2023-03-04T20:23:35.992Z,-0.22
2023-03-04T20:26:03.659Z,-0.23
2023-03-04T20:28:31.734Z,-0.27
2023-03-04T20:31:12.437Z,-0.26
2023-03-04T20:33:40.138Z,-0.30
2023-03-04T20:36:08.028Z,-0.32
2023-03-04T20:38:35.698Z,-0.35
2023-03-04T20:41:03.352Z,-0.36
2023-03-04T20:43:31.272Z,-0.41
2023-03-04T20:46:13.771Z,-0.43
2023-03-04T20:48:43.360Z,-0.46
2023-03-04T20:51:11.030Z,-0.44
2023-03-04T20:53:38.665Z,-0.48
2023-03-04T20:56:06.416Z,-0.50
2023-03-04T20:58:34.149Z,-0.54
2023-03-04T21:01:01.893Z,-0.53
2023-03-04T21:03:30.094Z,-0.58
2023-03-04T21:06:03.252Z,-0.58
2023-03-04T21:08:30.868Z,-0.60
2023-03-04T21:10:58.592Z,-0.59
2023-03-04T21:13:30.131Z,-0.58
2023-03-04T21:15:58.298Z,-0.59
2023-03-04T21:18:28.494Z,-0.60
2023-03-04T21:20:56.947Z,-0.63
2023-03-04T21:23:26.011Z,-0.63
2023-03-04T21:25:53.609Z,-0.60
2023-03-04T21:28:21.312Z,-0.60
2023-03-04T21:30:49.056Z,-0.70
2023-03-04T21:33:18.631Z,-0.63
2023-03-04T21:35:48.088Z,-0.67
2023-03-04T21:38:15.831Z,-0.62
2023-03-04T21:40:45.098Z,-0.63
2023-03-04T21:43:12.707Z,-0.60
2023-03-04T21:45:40.322Z,-0.60
2023-03-04T21:48:08.458Z,-0.62
2023-03-04T21:50:36.073Z,-0.63
2023-03-04T21:53:03.793Z,-0.62
2023-03-04T21:55:31.396Z,-0.62
2023-03-04T21:58:00.485Z,-0.65
2023-03-04T22:00:28.238Z,-0.69
2023-03-04T22:02:55.971Z,-0.73
2023-03-04T22:05:23.712Z,-0.76
2023-03-04T22:07:51.391Z,-0.80
2023-03-04T22:10:19.108Z,-0.84
2023-03-04T22:12:46.787Z,-0.87
2023-03-04T22:15:15.935Z,-0.88
2023-03-04T22:17:45.602Z,-0.90
2023-03-04T22:20:14.802Z,-0.89
2023-03-04T22:22:42.556Z,-0.89
2023-03-04T22:25:10.692Z,-0.95
2023-03-04T22:27:38.384Z,-0.94
2023-03-04T22:30:06.483Z,-0.94
2023-03-04T22:32:35.647Z,-0.95
2023-03-04T22:35:03.368Z,-0.97
2023-03-04T22:37:31.265Z,-0.99
2023-03-04T22:39:59.056Z,-1.01
2023-03-04T22:42:26.857Z,-1.01
2023-03-04T22:44:55.764Z,-1.06
2023-03-04T22:47:23.517Z,-1.09
2023-03-04T22:49:52.598Z,-1.10
2023-03-04T22:52:20.234Z,-1.10
2023-03-04T22:54:47.877Z,-1.12
2023-03-04T22:57:15.610Z,-1.12
2023-03-04T22:59:43.217Z,-1.13
2023-03-04T23:02:10.851Z,-1.14
2023-03-04T23:04:38.546Z,-1.19
2023-03-04T23:07:07.671Z,-1.22
2023-03-04T23:09:35.391Z,-1.23
2023-03-04T23:12:03.120Z,-1.28
2023-03-04T23:14:30.810Z,-1.32
2023-03-04T23:16:58.533Z,-1.32
2023-03-04T23:19:26.257Z,-1.29
2023-03-04T23:21:53.953Z,-1.38
2023-03-04T23:24:24.590Z,-1.37
2023-03-04T23:26:53.274Z,-1.33
2023-03-04T23:29:20.946Z,-1.34
2023-03-04T23:31:48.630Z,-1.39
2023-03-04T23:34:16.273Z,-1.43
2023-03-04T23:36:44.027Z,-1.45
2023-03-04T23:39:13.076Z,-1.48
2023-03-04T23:41:42.301Z,-1.50
2023-03-04T23:44:11.441Z,-1.51
2023-03-04T23:46:39.275Z,-1.57
2023-03-04T23:49:07.058Z,-1.57
2023-03-04T23:51:34.879Z,-1.56
2023-03-04T23:54:02.529Z,-1.59
2023-03-04T23:56:31.660Z,-1.58
2023-03-04T23:59:01.214Z,-1.65
